sensor_id;sensor_type;location;lat;lon;timestamp;P1;durP1;ratioP1;P2;durP2;ratioP2
18176;SDS011;9213;50.858;3.964;2023-07-20T00:00:09;10.40;;;4.32;;
18176;SDS011;9213;50.858;3.964;2023-07-20T00:02:37;7.50;;;3.60;;
18176;SDS011;9213;50.858;3.964;2023-07-20T00:05:05;9.23;;;3.70;;
18176;SDS011;9213;50.858;3.964;2023-07-20T00:07:32;12.33;;;4.20;;
18176;SDS011;9213;50.858;3.964;2023-07-20T00:09:59;7.67;;;4.20;;
18176;SDS011;9213;50.858;3.964;2023-07-20T00:12:27;6.83;;;3.93;;
18176;SDS011;9213;50.858;3.964;2023-07-20T00:14:54;8.80;;;4.30;;
18176;SDS011;9213;50.858;3.964;2023-07-20T00:17:21;8.50;;;4.37;;
18176;SDS011;9213;50.858;3.964;2023-07-20T00:19:48;7.55;;;4.35;;
18176;SDS011;9213;50.858;3.964;2023-07-20T00:22:15;11.55;;;4.43;;
18176;SDS011;9213;50.858;3.964;2023-07-20T00:24:41;7.22;;;4.40;;
18176;SDS011;9213;50.858;3.964;2023-07-20T00:27:08;14.18;;;4.40;;
18176;SDS011;9213;50.858;3.964;2023-07-20T00:29:37;11.53;;;5.00;;
18176;SDS011;9213;50.858;3.964;2023-07-20T00:32:04;11.20;;;5.22;;
18176;SDS011;9213;50.858;3.964;2023-07-20T00:34:31;11.65;;;5.03;;
18176;SDS011;9213;50.858;3.964;2023-07-20T00:36:58;16.77;;;5.32;;
18176;SDS011;9213;50.858;3.964;2023-07-20T00:39:25;11.60;;;5.32;;
18176;SDS011;9213;50.858;3.964;2023-07-20T00:41:52;11.07;;;4.82;;
18176;SDS011;9213;50.858;3.964;2023-07-20T00:44:19;12.15;;;5.22;;
18176;SDS011;9213;50.858;3.964;2023-07-20T00:46:47;9.50;;;5.53;;
18176;SDS011;9213;50.858;3.964;2023-07-20T00:49:14;10.70;;;5.20;;
18176;SDS011;9213;50.858;3.964;2023-07-20T00:51:46;12.25;;;5.68;;
18176;SDS011;9213;50.858;3.964;2023-07-20T00:54:14;15.82;;;5.78;;
18176;SDS011;9213;50.858;3.964;2023-07-20T00:56:41;10.00;;;5.37;;
18176;SDS011;9213;50.858;3.964;2023-07-20T00:59:08;13.43;;;5.88;;
18176;SDS011;9213;50.858;3.964;2023-07-20T01:01:36;10.30;;;5.57;;
18176;SDS011;9213;50.858;3.964;2023-07-20T01:04:04;13.23;;;6.43;;
18176;SDS011;9213;50.858;3.964;2023-07-20T01:06:35;15.00;;;6.45;;
18176;SDS011;9213;50.858;3.964;2023-07-20T01:09:12;13.00;;;6.47;;
18176;SDS011;9213;50.858;3.964;2023-07-20T01:11:43;13.27;;;6.50;;
18176;SDS011;9213;50.858;3.964;2023-07-20T01:14:18;11.73;;;6.68;;
18176;SDS011;9213;50.858;3.964;2023-07-20T01:16:46;11.83;;;6.00;;
18176;SDS011;9213;50.858;3.964;2023-07-20T01:19:16;11.97;;;6.03;;
18176;SDS011;9213;50.858;3.964;2023-07-20T01:21:44;16.00;;;6.70;;
18176;SDS011;9213;50.858;3.964;2023-07-20T01:27:36;12.43;;;6.90;;
18176;SDS011;9213;50.858;3.964;2023-07-20T01:30:35;13.60;;;7.23;;
18176;SDS011;9213;50.858;3.964;2023-07-20T01:33:17;13.63;;;7.00;;
18176;SDS011;9213;50.858;3.964;2023-07-20T01:35:46;15.43;;;8.50;;
18176;SDS011;9213;50.858;3.964;2023-07-20T01:38:17;13.00;;;8.00;;
18176;SDS011;9213;50.858;3.964;2023-07-20T01:40:45;15.17;;;7.90;;
18176;SDS011;9213;50.858;3.964;2023-07-20T01:43:12;15.33;;;7.77;;
18176;SDS011;9213;50.858;3.964;2023-07-20T01:45:39;13.07;;;7.80;;
18176;SDS011;9213;50.858;3.964;2023-07-20T01:48:06;12.87;;;7.30;;
18176;SDS011;9213;50.858;3.964;2023-07-20T01:50:34;12.17;;;7.07;;
18176;SDS011;9213;50.858;3.964;2023-07-20T01:53:01;17.40;;;8.03;;
18176;SDS011;9213;50.858;3.964;2023-07-20T01:55:28;10.63;;;7.37;;
18176;SDS011;9213;50.858;3.964;2023-07-20T01:57:55;12.07;;;7.70;;
18176;SDS011;9213;50.858;3.964;2023-07-20T02:00:22;18.73;;;8.30;;
18176;SDS011;9213;50.858;3.964;2023-07-20T02:02:50;17.37;;;7.67;;
18176;SDS011;9213;50.858;3.964;2023-07-20T02:05:17;16.27;;;8.63;;
18176;SDS011;9213;50.858;3.964;2023-07-20T02:07:45;15.47;;;8.20;;
18176;SDS011;9213;50.858;3.964;2023-07-20T02:10:12;17.20;;;8.23;;
18176;SDS011;9213;50.858;3.964;2023-07-20T02:12:39;15.27;;;8.27;;
18176;SDS011;9213;50.858;3.964;2023-07-20T02:15:07;13.47;;;8.27;;
18176;SDS011;9213;50.858;3.964;2023-07-20T02:17:34;13.00;;;8.17;;
18176;SDS011;9213;50.858;3.964;2023-07-20T02:20:02;16.23;;;8.83;;
18176;SDS011;9213;50.858;3.964;2023-07-20T02:22:29;14.00;;;8.63;;
18176;SDS011;9213;50.858;3.964;2023-07-20T02:24:58;16.33;;;8.83;;
18176;SDS011;9213;50.858;3.964;2023-07-20T02:27:25;18.43;;;9.67;;
18176;SDS011;9213;50.858;3.964;2023-07-20T02:29:51;13.90;;;8.43;;
18176;SDS011;9213;50.858;3.964;2023-07-20T02:32:18;15.60;;;8.33;;
18176;SDS011;9213;50.858;3.964;2023-07-20T02:34:45;18.53;;;9.23;;
18176;SDS011;9213;50.858;3.964;2023-07-20T02:37:12;20.03;;;9.67;;
18176;SDS011;9213;50.858;3.964;2023-07-20T02:39:39;14.03;;;8.97;;
18176;SDS011;9213;50.858;3.964;2023-07-20T02:42:07;17.90;;;9.37;;
18176;SDS011;9213;50.858;3.964;2023-07-20T02:44:34;17.67;;;10.10;;
18176;SDS011;9213;50.858;3.964;2023-07-20T02:47:01;20.73;;;9.67;;
18176;SDS011;9213;50.858;3.964;2023-07-20T02:49:28;15.87;;;9.23;;
18176;SDS011;9213;50.858;3.964;2023-07-20T02:51:55;18.60;;;9.47;;
18176;SDS011;9213;50.858;3.964;2023-07-20T02:54:22;15.50;;;10.17;;
18176;SDS011;9213;50.858;3.964;2023-07-20T02:56:49;16.20;;;10.47;;
18176;SDS011;9213;50.858;3.964;2023-07-20T02:59:17;18.13;;;10.30;;
18176;SDS011;9213;50.858;3.964;2023-07-20T03:01:44;16.37;;;10.20;;
18176;SDS011;9213;50.858;3.964;2023-07-20T03:04:11;18.87;;;11.27;;
18176;SDS011;9213;50.858;3.964;2023-07-20T03:06:38;16.27;;;11.17;;
18176;SDS011;9213;50.858;3.964;2023-07-20T03:09:05;14.73;;;10.30;;
18176;SDS011;9213;50.858;3.964;2023-07-20T03:11:32;16.03;;;11.10;;
18176;SDS011;9213;50.858;3.964;2023-07-20T03:13:59;15.70;;;10.77;;
18176;SDS011;9213;50.858;3.964;2023-07-20T03:16:28;13.60;;;10.53;;
18176;SDS011;9213;50.858;3.964;2023-07-20T03:18:57;16.30;;;11.13;;
18176;SDS011;9213;50.858;3.964;2023-07-20T03:21:24;18.37;;;10.70;;
18176;SDS011;9213;50.858;3.964;2023-07-20T03:23:51;17.80;;;11.37;;
18176;SDS011;9213;50.858;3.964;2023-07-20T03:26:19;14.63;;;10.60;;
18176;SDS011;9213;50.858;3.964;2023-07-20T03:28:46;23.10;;;11.77;;
18176;SDS011;9213;50.858;3.964;2023-07-20T03:31:13;23.57;;;11.57;;
18176;SDS011;9213;50.858;3.964;2023-07-20T03:33:42;15.63;;;10.60;;
18176;SDS011;9213;50.858;3.964;2023-07-20T03:36:09;16.27;;;11.73;;
18176;SDS011;9213;50.858;3.964;2023-07-20T03:38:36;17.77;;;11.40;;
18176;SDS011;9213;50.858;3.964;2023-07-20T03:41:03;17.03;;;11.20;;
18176;SDS011;9213;50.858;3.964;2023-07-20T03:43:30;14.23;;;11.13;;
18176;SDS011;9213;50.858;3.964;2023-07-20T03:45:56;21.03;;;11.33;;
18176;SDS011;9213;50.858;3.964;2023-07-20T03:48:24;16.77;;;10.40;;
18176;SDS011;9213;50.858;3.964;2023-07-20T03:50:52;13.10;;;10.70;;
18176;SDS011;9213;50.858;3.964;2023-07-20T03:53:20;16.17;;;11.00;;
18176;SDS011;9213;50.858;3.964;2023-07-20T03:55:47;14.93;;;10.37;;
18176;SDS011;9213;50.858;3.964;2023-07-20T03:58:15;15.57;;;9.83;;
18176;SDS011;9213;50.858;3.964;2023-07-20T04:00:44;16.93;;;9.57;;
18176;SDS011;9213;50.858;3.964;2023-07-20T04:03:11;22.27;;;11.50;;
18176;SDS011;9213;50.858;3.964;2023-07-20T04:05:38;20.43;;;11.27;;
18176;SDS011;9213;50.858;3.964;2023-07-20T04:08:07;20.00;;;11.63;;
18176;SDS011;9213;50.858;3.964;2023-07-20T04:10:34;17.00;;;11.57;;
18176;SDS011;9213;50.858;3.964;2023-07-20T04:13:01;17.37;;;10.53;;
18176;SDS011;9213;50.858;3.964;2023-07-20T04:15:28;20.10;;;12.23;;
18176;SDS011;9213;50.858;3.964;2023-07-20T04:17:55;19.77;;;12.10;;
18176;SDS011;9213;50.858;3.964;2023-07-20T04:20:22;18.97;;;12.23;;
18176;SDS011;9213;50.858;3.964;2023-07-20T04:22:49;17.73;;;12.10;;
18176;SDS011;9213;50.858;3.964;2023-07-20T04:25:17;22.23;;;12.27;;
18176;SDS011;9213;50.858;3.964;2023-07-20T04:27:44;21.97;;;11.60;;
18176;SDS011;9213;50.858;3.964;2023-07-20T04:30:11;16.37;;;11.90;;
18176;SDS011;9213;50.858;3.964;2023-07-20T04:32:40;17.63;;;12.27;;
18176;SDS011;9213;50.858;3.964;2023-07-20T04:35:09;16.60;;;11.53;;
18176;SDS011;9213;50.858;3.964;2023-07-20T04:37:36;19.53;;;11.60;;
18176;SDS011;9213;50.858;3.964;2023-07-20T04:40:03;16.37;;;11.57;;
18176;SDS011;9213;50.858;3.964;2023-07-20T04:42:32;19.03;;;11.47;;
18176;SDS011;9213;50.858;3.964;2023-07-20T04:44:59;18.97;;;11.60;;
18176;SDS011;9213;50.858;3.964;2023-07-20T04:47:26;16.43;;;11.07;;
18176;SDS011;9213;50.858;3.964;2023-07-20T04:49:53;16.10;;;12.10;;
18176;SDS011;9213;50.858;3.964;2023-07-20T04:52:20;15.53;;;12.10;;
18176;SDS011;9213;50.858;3.964;2023-07-20T04:54:48;19.83;;;11.50;;
18176;SDS011;9213;50.858;3.964;2023-07-20T04:57:15;17.23;;;12.13;;
18176;SDS011;9213;50.858;3.964;2023-07-20T04:59:43;14.50;;;11.07;;
18176;SDS011;9213;50.858;3.964;2023-07-20T05:02:10;16.93;;;11.43;;
18176;SDS011;9213;50.858;3.964;2023-07-20T05:04:37;21.73;;;12.73;;
18176;SDS011;9213;50.858;3.964;2023-07-20T05:07:04;18.37;;;12.20;;
18176;SDS011;9213;50.858;3.964;2023-07-20T05:09:31;19.33;;;12.70;;
18176;SDS011;9213;50.858;3.964;2023-07-20T05:11:58;15.00;;;11.37;;
18176;SDS011;9213;50.858;3.964;2023-07-20T05:14:25;17.47;;;12.03;;
18176;SDS011;9213;50.858;3.964;2023-07-20T05:16:53;13.93;;;11.23;;
18176;SDS011;9213;50.858;3.964;2023-07-20T05:19:20;16.20;;;11.70;;
18176;SDS011;9213;50.858;3.964;2023-07-20T05:21:47;18.87;;;11.63;;
18176;SDS011;9213;50.858;3.964;2023-07-20T05:24:14;17.23;;;12.00;;
18176;SDS011;9213;50.858;3.964;2023-07-20T05:26:41;16.33;;;12.23;;
18176;SDS011;9213;50.858;3.964;2023-07-20T05:29:07;21.13;;;12.33;;
18176;SDS011;9213;50.858;3.964;2023-07-20T05:31:34;17.23;;;12.00;;
18176;SDS011;9213;50.858;3.964;2023-07-20T05:34:03;15.70;;;11.03;;
18176;SDS011;9213;50.858;3.964;2023-07-20T05:36:29;15.53;;;11.40;;
18176;SDS011;9213;50.858;3.964;2023-07-20T05:38:57;19.93;;;11.30;;
18176;SDS011;9213;50.858;3.964;2023-07-20T05:41:24;17.57;;;12.37;;
18176;SDS011;9213;50.858;3.964;2023-07-20T05:43:50;13.20;;;11.13;;
18176;SDS011;9213;50.858;3.964;2023-07-20T05:46:17;20.10;;;11.37;;
18176;SDS011;9213;50.858;3.964;2023-07-20T05:48:44;15.50;;;11.60;;
18176;SDS011;9213;50.858;3.964;2023-07-20T05:51:12;18.80;;;11.53;;
18176;SDS011;9213;50.858;3.964;2023-07-20T05:53:40;15.50;;;11.50;;
18176;SDS011;9213;50.858;3.964;2023-07-20T05:56:07;16.23;;;11.53;;
18176;SDS011;9213;50.858;3.964;2023-07-20T05:58:35;17.47;;;11.70;;
18176;SDS011;9213;50.858;3.964;2023-07-20T06:01:03;14.00;;;11.27;;
18176;SDS011;9213;50.858;3.964;2023-07-20T06:03:30;17.70;;;11.53;;
18176;SDS011;9213;50.858;3.964;2023-07-20T06:05:59;14.10;;;11.10;;
18176;SDS011;9213;50.858;3.964;2023-07-20T06:08:28;16.20;;;10.87;;
18176;SDS011;9213;50.858;3.964;2023-07-20T06:10:55;17.40;;;10.60;;
18176;SDS011;9213;50.858;3.964;2023-07-20T06:13:22;14.07;;;10.20;;
18176;SDS011;9213;50.858;3.964;2023-07-20T06:15:50;14.93;;;10.90;;
18176;SDS011;9213;50.858;3.964;2023-07-20T06:18:17;13.40;;;10.57;;
18176;SDS011;9213;50.858;3.964;2023-07-20T06:20:48;11.73;;;10.20;;
18176;SDS011;9213;50.858;3.964;2023-07-20T06:23:15;12.83;;;9.73;;
18176;SDS011;9213;50.858;3.964;2023-07-20T06:25:44;10.63;;;9.53;;
18176;SDS011;9213;50.858;3.964;2023-07-20T06:28:11;10.47;;;8.77;;
18176;SDS011;9213;50.858;3.964;2023-07-20T06:30:38;12.20;;;9.27;;
18176;SDS011;9213;50.858;3.964;2023-07-20T06:33:05;10.60;;;9.43;;
18176;SDS011;9213;50.858;3.964;2023-07-20T06:35:32;11.30;;;9.43;;
18176;SDS011;9213;50.858;3.964;2023-07-20T06:37:59;12.23;;;9.77;;
18176;SDS011;9213;50.858;3.964;2023-07-20T06:40:28;10.52;;;9.45;;
18176;SDS011;9213;50.858;3.964;2023-07-20T06:42:57;11.40;;;9.20;;
18176;SDS011;9213;50.858;3.964;2023-07-20T06:45:24;8.45;;;7.47;;
18176;SDS011;9213;50.858;3.964;2023-07-20T06:47:51;9.80;;;7.13;;
18176;SDS011;9213;50.858;3.964;2023-07-20T06:50:18;10.18;;;7.22;;
18176;SDS011;9213;50.858;3.964;2023-07-20T06:52:45;10.55;;;8.07;;
18176;SDS011;9213;50.858;3.964;2023-07-20T06:55:13;9.63;;;7.60;;
18176;SDS011;9213;50.858;3.964;2023-07-20T06:57:40;8.93;;;7.43;;
18176;SDS011;9213;50.858;3.964;2023-07-20T07:00:09;7.47;;;6.38;;
18176;SDS011;9213;50.858;3.964;2023-07-20T07:02:37;9.98;;;6.95;;
18176;SDS011;9213;50.858;3.964;2023-07-20T07:05:04;7.10;;;6.45;;
18176;SDS011;9213;50.858;3.964;2023-07-20T07:07:32;6.80;;;5.93;;
18176;SDS011;9213;50.858;3.964;2023-07-20T07:09:59;8.02;;;6.18;;
18176;SDS011;9213;50.858;3.964;2023-07-20T07:12:28;6.45;;;5.53;;
18176;SDS011;9213;50.858;3.964;2023-07-20T07:14:55;6.20;;;5.68;;
18176;SDS011;9213;50.858;3.964;2023-07-20T07:17:24;5.78;;;4.50;;
18176;SDS011;9213;50.858;3.964;2023-07-20T07:19:51;5.35;;;4.53;;
18176;SDS011;9213;50.858;3.964;2023-07-20T07:22:19;5.30;;;4.50;;
18176;SDS011;9213;50.858;3.964;2023-07-20T07:24:46;7.22;;;5.07;;
18176;SDS011;9213;50.858;3.964;2023-07-20T07:27:13;5.65;;;4.57;;
18176;SDS011;9213;50.858;3.964;2023-07-20T07:29:41;5.35;;;4.35;;
18176;SDS011;9213;50.858;3.964;2023-07-20T07:32:09;4.68;;;3.78;;
18176;SDS011;9213;50.858;3.964;2023-07-20T07:34:38;4.72;;;4.18;;
18176;SDS011;9213;50.858;3.964;2023-07-20T07:37:05;4.90;;;4.40;;
18176;SDS011;9213;50.858;3.964;2023-07-20T07:39:32;5.25;;;4.80;;
18176;SDS011;9213;50.858;3.964;2023-07-20T07:41:59;5.20;;;4.80;;
18176;SDS011;9213;50.858;3.964;2023-07-20T07:44:26;6.15;;;4.85;;
18176;SDS011;9213;50.858;3.964;2023-07-20T07:46:53;6.35;;;5.85;;
18176;SDS011;9213;50.858;3.964;2023-07-20T07:49:20;5.85;;;5.22;;
18176;SDS011;9213;50.858;3.964;2023-07-20T07:51:48;5.78;;;5.22;;
18176;SDS011;9213;50.858;3.964;2023-07-20T07:54:15;9.73;;;7.22;;
18176;SDS011;9213;50.858;3.964;2023-07-20T07:56:42;7.70;;;6.78;;
18176;SDS011;9213;50.858;3.964;2023-07-20T07:59:09;8.68;;;7.60;;
18176;SDS011;9213;50.858;3.964;2023-07-20T08:01:36;7.93;;;7.22;;
18176;SDS011;9213;50.858;3.964;2023-07-20T08:04:03;9.10;;;7.32;;
18176;SDS011;9213;50.858;3.964;2023-07-20T08:06:30;10.30;;;7.30;;
18176;SDS011;9213;50.858;3.964;2023-07-20T08:08:58;8.23;;;7.43;;
18176;SDS011;9213;50.858;3.964;2023-07-20T08:11:25;7.07;;;6.47;;
18176;SDS011;9213;50.858;3.964;2023-07-20T08:13:52;6.68;;;6.18;;
18176;SDS011;9213;50.858;3.964;2023-07-20T08:16:19;5.22;;;4.82;;
18176;SDS011;9213;50.858;3.964;2023-07-20T08:18:46;6.78;;;5.93;;
18176;SDS011;9213;50.858;3.964;2023-07-20T08:21:13;6.50;;;5.90;;
18176;SDS011;9213;50.858;3.964;2023-07-20T08:23:40;6.20;;;5.80;;
18176;SDS011;9213;50.858;3.964;2023-07-20T08:26:08;5.68;;;5.15;;
18176;SDS011;9213;50.858;3.964;2023-07-20T08:28:35;5.65;;;5.20;;
18176;SDS011;9213;50.858;3.964;2023-07-20T08:31:02;6.78;;;6.18;;
18176;SDS011;9213;50.858;3.964;2023-07-20T08:33:31;6.30;;;5.80;;
18176;SDS011;9213;50.858;3.964;2023-07-20T08:35:58;6.55;;;5.95;;
18176;SDS011;9213;50.858;3.964;2023-07-20T08:38:26;6.45;;;5.85;;
18176;SDS011;9213;50.858;3.964;2023-07-20T08:40:53;5.70;;;5.20;;
18176;SDS011;9213;50.858;3.964;2023-07-20T08:43:22;5.82;;;5.32;;
18176;SDS011;9213;50.858;3.964;2023-07-20T08:45:50;5.70;;;5.20;;
18176;SDS011;9213;50.858;3.964;2023-07-20T08:48:20;5.50;;;4.97;;
18176;SDS011;9213;50.858;3.964;2023-07-20T08:50:47;5.05;;;4.35;;
18176;SDS011;9213;50.858;3.964;2023-07-20T08:53:15;4.93;;;4.45;;
18176;SDS011;9213;50.858;3.964;2023-07-20T08:55:43;4.50;;;4.00;;
18176;SDS011;9213;50.858;3.964;2023-07-20T08:58:12;5.45;;;3.50;;
18176;SDS011;9213;50.858;3.964;2023-07-20T09:00:41;3.78;;;3.47;;
18176;SDS011;9213;50.858;3.964;2023-07-20T09:03:08;3.40;;;3.20;;
18176;SDS011;9213;50.858;3.964;2023-07-20T09:05:36;4.25;;;3.90;;
18176;SDS011;9213;50.858;3.964;2023-07-20T09:08:04;4.30;;;3.90;;
18176;SDS011;9213;50.858;3.964;2023-07-20T09:10:31;5.50;;;4.10;;
18176;SDS011;9213;50.858;3.964;2023-07-20T09:12:58;4.78;;;4.38;;
18176;SDS011;9213;50.858;3.964;2023-07-20T09:15:25;5.07;;;4.40;;
18176;SDS011;9213;50.858;3.964;2023-07-20T09:17:53;4.78;;;4.38;;
18176;SDS011;9213;50.858;3.964;2023-07-20T09:20:20;4.78;;;4.35;;
18176;SDS011;9213;50.858;3.964;2023-07-20T09:22:47;4.43;;;4.07;;
18176;SDS011;9213;50.858;3.964;2023-07-20T09:25:15;4.00;;;3.80;;
18176;SDS011;9213;50.858;3.964;2023-07-20T09:27:43;3.33;;;3.03;;
18176;SDS011;9213;50.858;3.964;2023-07-20T09:30:12;2.95;;;2.70;;
18176;SDS011;9213;50.858;3.964;2023-07-20T09:32:41;4.20;;;3.17;;
18176;SDS011;9213;50.858;3.964;2023-07-20T09:35:16;5.88;;;3.90;;
18176;SDS011;9213;50.858;3.964;2023-07-20T09:37:46;4.10;;;3.53;;
18176;SDS011;9213;50.858;3.964;2023-07-20T09:40:17;3.63;;;3.33;;
18176;SDS011;9213;50.858;3.964;2023-07-20T09:42:45;3.90;;;3.60;;
18176;SDS011;9213;50.858;3.964;2023-07-20T09:45:13;3.95;;;3.60;;
18176;SDS011;9213;50.858;3.964;2023-07-20T09:47:40;3.70;;;3.50;;
18176;SDS011;9213;50.858;3.964;2023-07-20T09:50:07;3.40;;;3.10;;
18176;SDS011;9213;50.858;3.964;2023-07-20T09:52:41;3.50;;;3.20;;
18176;SDS011;9213;50.858;3.964;2023-07-20T09:55:09;3.38;;;3.17;;
18176;SDS011;9213;50.858;3.964;2023-07-20T09:57:38;3.20;;;2.90;;
18176;SDS011;9213;50.858;3.964;2023-07-20T10:00:07;3.45;;;3.15;;
18176;SDS011;9213;50.858;3.964;2023-07-20T10:02:40;3.97;;;3.63;;
18176;SDS011;9213;50.858;3.964;2023-07-20T10:05:10;3.10;;;2.90;;
18176;SDS011;9213;50.858;3.964;2023-07-20T10:07:40;3.13;;;2.83;;
18176;SDS011;9213;50.858;3.964;2023-07-20T10:10:13;2.83;;;2.50;;
18176;SDS011;9213;50.858;3.964;2023-07-20T10:12:42;3.13;;;2.90;;
18176;SDS011;9213;50.858;3.964;2023-07-20T10:15:11;3.53;;;3.22;;
18176;SDS011;9213;50.858;3.964;2023-07-20T10:17:46;3.28;;;3.00;;
18176;SDS011;9213;50.858;3.964;2023-07-20T10:20:27;3.00;;;2.80;;
18176;SDS011;9213;50.858;3.964;2023-07-20T10:22:56;3.25;;;2.83;;
18176;SDS011;9213;50.858;3.964;2023-07-20T10:25:23;2.80;;;2.60;;
18176;SDS011;9213;50.858;3.964;2023-07-20T10:27:50;2.58;;;2.38;;
18176;SDS011;9213;50.858;3.964;2023-07-20T10:30:18;2.80;;;2.60;;
18176;SDS011;9213;50.858;3.964;2023-07-20T10:32:45;2.05;;;1.92;;
18176;SDS011;9213;50.858;3.964;2023-07-20T10:35:14;1.90;;;1.80;;
18176;SDS011;9213;50.858;3.964;2023-07-20T10:40:31;2.40;;;1.73;;
18176;SDS011;9213;50.858;3.964;2023-07-20T10:42:59;3.45;;;1.85;;
18176;SDS011;9213;50.858;3.964;2023-07-20T10:45:35;4.07;;;1.90;;
18176;SDS011;9213;50.858;3.964;2023-07-20T10:48:06;2.50;;;2.13;;
18176;SDS011;9213;50.858;3.964;2023-07-20T10:50:40;3.08;;;2.10;;
18176;SDS011;9213;50.858;3.964;2023-07-20T10:53:12;2.97;;;2.70;;
18176;SDS011;9213;50.858;3.964;2023-07-20T10:55:40;2.33;;;2.13;;
18176;SDS011;9213;50.858;3.964;2023-07-20T10:58:09;3.42;;;2.13;;
18176;SDS011;9213;50.858;3.964;2023-07-20T11:00:37;2.95;;;2.28;;
18176;SDS011;9213;50.858;3.964;2023-07-20T11:03:28;2.92;;;2.13;;
18176;SDS011;9213;50.858;3.964;2023-07-20T11:05:56;3.97;;;2.20;;
18176;SDS011;9213;50.858;3.964;2023-07-20T11:08:40;2.20;;;2.00;;
18176;SDS011;9213;50.858;3.964;2023-07-20T11:11:21;2.83;;;1.80;;
18176;SDS011;9213;50.858;3.964;2023-07-20T11:13:55;2.20;;;2.08;;
18176;SDS011;9213;50.858;3.964;2023-07-20T11:16:36;2.58;;;2.30;;
18176;SDS011;9213;50.858;3.964;2023-07-20T11:19:05;6.05;;;2.60;;
18176;SDS011;9213;50.858;3.964;2023-07-20T11:21:42;2.60;;;2.40;;
18176;SDS011;9213;50.858;3.964;2023-07-20T11:24:11;2.10;;;2.00;;
18176;SDS011;9213;50.858;3.964;2023-07-20T11:26:39;3.60;;;2.28;;
18176;SDS011;9213;50.858;3.964;2023-07-20T11:29:10;3.33;;;2.28;;
18176;SDS011;9213;50.858;3.964;2023-07-20T11:31:37;3.17;;;2.40;;
18176;SDS011;9213;50.858;3.964;2023-07-20T11:34:05;4.03;;;2.13;;
18176;SDS011;9213;50.858;3.964;2023-07-20T11:36:33;3.70;;;2.35;;
18176;SDS011;9213;50.858;3.964;2023-07-20T11:39:00;3.28;;;2.35;;
18176;SDS011;9213;50.858;3.964;2023-07-20T11:41:31;3.63;;;2.30;;
18176;SDS011;9213;50.858;3.964;2023-07-20T11:43:58;2.78;;;2.50;;
18176;SDS011;9213;50.858;3.964;2023-07-20T11:46:27;3.65;;;2.00;;
18176;SDS011;9213;50.858;3.964;2023-07-20T11:48:57;6.75;;;2.20;;
18176;SDS011;9213;50.858;3.964;2023-07-20T11:51:26;2.90;;;1.90;;
18176;SDS011;9213;50.858;3.964;2023-07-20T11:53:53;5.82;;;2.33;;
18176;SDS011;9213;50.858;3.964;2023-07-20T11:56:21;5.00;;;2.75;;
18176;SDS011;9213;50.858;3.964;2023-07-20T11:58:50;5.65;;;2.75;;
18176;SDS011;9213;50.858;3.964;2023-07-20T12:01:22;4.35;;;2.50;;
18176;SDS011;9213;50.858;3.964;2023-07-20T12:03:51;3.22;;;2.60;;
18176;SDS011;9213;50.858;3.964;2023-07-20T12:06:18;4.05;;;2.75;;
18176;SDS011;9213;50.858;3.964;2023-07-20T12:08:48;4.60;;;2.88;;
18176;SDS011;9213;50.858;3.964;2023-07-20T12:11:30;3.10;;;2.75;;
18176;SDS011;9213;50.858;3.964;2023-07-20T12:13:59;4.95;;;2.50;;
18176;SDS011;9213;50.858;3.964;2023-07-20T12:16:26;3.53;;;2.42;;
18176;SDS011;9213;50.858;3.964;2023-07-20T12:18:58;3.28;;;2.50;;
18176;SDS011;9213;50.858;3.964;2023-07-20T12:21:27;12.45;;;2.88;;
18176;SDS011;9213;50.858;3.964;2023-07-20T12:23:55;18.55;;;4.20;;
18176;SDS011;9213;50.858;3.964;2023-07-20T12:26:22;25.15;;;4.57;;
18176;SDS011;9213;50.858;3.964;2023-07-20T12:28:50;17.70;;;3.90;;
18176;SDS011;9213;50.858;3.964;2023-07-20T12:31:18;15.73;;;3.70;;
18176;SDS011;9213;50.858;3.964;2023-07-20T12:33:46;13.65;;;3.50;;
18176;SDS011;9213;50.858;3.964;2023-07-20T12:36:13;5.00;;;2.72;;
18176;SDS011;9213;50.858;3.964;2023-07-20T12:38:40;2.80;;;2.50;;
18176;SDS011;9213;50.858;3.964;2023-07-20T12:41:09;2.50;;;2.30;;
18176;SDS011;9213;50.858;3.964;2023-07-20T12:43:38;3.70;;;2.30;;
18176;SDS011;9213;50.858;3.964;2023-07-20T12:46:05;3.53;;;2.42;;
18176;SDS011;9213;50.858;3.964;2023-07-20T12:48:33;7.63;;;2.88;;
18176;SDS011;9213;50.858;3.964;2023-07-20T12:51:02;7.00;;;3.25;;
18176;SDS011;9213;50.858;3.964;2023-07-20T12:53:30;3.80;;;3.03;;
18176;SDS011;9213;50.858;3.964;2023-07-20T12:55:57;3.70;;;2.92;;
18176;SDS011;9213;50.858;3.964;2023-07-20T12:58:24;5.30;;;3.25;;
18176;SDS011;9213;50.858;3.964;2023-07-20T13:00:52;3.97;;;3.47;;
18176;SDS011;9213;50.858;3.964;2023-07-20T13:03:18;3.92;;;3.63;;
18176;SDS011;9213;50.858;3.964;2023-07-20T13:05:47;3.72;;;3.42;;
18176;SDS011;9213;50.858;3.964;2023-07-20T13:08:15;3.58;;;3.28;;
18176;SDS011;9213;50.858;3.964;2023-07-20T13:10:43;4.38;;;3.47;;
18176;SDS011;9213;50.858;3.964;2023-07-20T13:13:10;3.97;;;3.50;;
18176;SDS011;9213;50.858;3.964;2023-07-20T13:15:40;4.03;;;3.72;;
18176;SDS011;9213;50.858;3.964;2023-07-20T13:18:08;9.27;;;4.00;;
18176;SDS011;9213;50.858;3.964;2023-07-20T13:20:35;3.90;;;3.60;;
18176;SDS011;9213;50.858;3.964;2023-07-20T13:23:04;4.10;;;3.80;;
18176;SDS011;9213;50.858;3.964;2023-07-20T13:25:31;4.03;;;3.65;;
18176;SDS011;9213;50.858;3.964;2023-07-20T13:27:58;3.95;;;3.65;;
18176;SDS011;9213;50.858;3.964;2023-07-20T13:30:25;3.65;;;3.35;;
18176;SDS011;9213;50.858;3.964;2023-07-20T13:32:51;3.90;;;3.60;;
18176;SDS011;9213;50.858;3.964;2023-07-20T13:35:18;3.33;;;3.13;;
18176;SDS011;9213;50.858;3.964;2023-07-20T13:37:45;3.25;;;3.05;;
18176;SDS011;9213;50.858;3.964;2023-07-20T13:40:14;3.55;;;2.70;;
18176;SDS011;9213;50.858;3.964;2023-07-20T13:42:43;2.80;;;2.60;;
18176;SDS011;9213;50.858;3.964;2023-07-20T13:45:11;3.55;;;2.65;;
18176;SDS011;9213;50.858;3.964;2023-07-20T13:47:38;3.75;;;2.50;;
18176;SDS011;9213;50.858;3.964;2023-07-20T13:50:05;3.47;;;2.50;;
18176;SDS011;9213;50.858;3.964;2023-07-20T13:52:32;2.30;;;2.00;;
18176;SDS011;9213;50.858;3.964;2023-07-20T13:55:00;2.38;;;2.20;;
18176;SDS011;9213;50.858;3.964;2023-07-20T13:57:28;2.53;;;2.33;;
18176;SDS011;9213;50.858;3.964;2023-07-20T13:59:55;2.17;;;2.05;;
18176;SDS011;9213;50.858;3.964;2023-07-20T14:02:22;3.60;;;2.30;;
18176;SDS011;9213;50.858;3.964;2023-07-20T14:04:49;2.15;;;2.00;;
18176;SDS011;9213;50.858;3.964;2023-07-20T14:07:16;2.13;;;2.03;;
18176;SDS011;9213;50.858;3.964;2023-07-20T14:09:43;2.28;;;2.08;;
18176;SDS011;9213;50.858;3.964;2023-07-20T14:12:10;2.20;;;2.00;;
18176;SDS011;9213;50.858;3.964;2023-07-20T14:14:40;2.83;;;2.10;;
18176;SDS011;9213;50.858;3.964;2023-07-20T14:17:07;2.00;;;1.90;;
18176;SDS011;9213;50.858;3.964;2023-07-20T14:19:34;5.05;;;2.10;;
18176;SDS011;9213;50.858;3.964;2023-07-20T14:22:03;2.40;;;1.77;;
18176;SDS011;9213;50.858;3.964;2023-07-20T14:24:30;3.90;;;2.03;;
18176;SDS011;9213;50.858;3.964;2023-07-20T14:26:57;1.60;;;1.50;;
18176;SDS011;9213;50.858;3.964;2023-07-20T14:29:25;2.05;;;1.90;;
18176;SDS011;9213;50.858;3.964;2023-07-20T14:31:54;2.28;;;1.75;;
18176;SDS011;9213;50.858;3.964;2023-07-20T14:34:21;2.90;;;1.90;;
18176;SDS011;9213;50.858;3.964;2023-07-20T14:36:48;2.45;;;2.22;;
18176;SDS011;9213;50.858;3.964;2023-07-20T14:39:16;2.65;;;2.05;;
18176;SDS011;9213;50.858;3.964;2023-07-20T14:41:43;2.10;;;1.80;;
18176;SDS011;9213;50.858;3.964;2023-07-20T14:44:09;3.78;;;1.92;;
18176;SDS011;9213;50.858;3.964;2023-07-20T14:46:36;3.20;;;2.38;;
18176;SDS011;9213;50.858;3.964;2023-07-20T14:49:04;3.83;;;2.28;;
18176;SDS011;9213;50.858;3.964;2023-07-20T14:51:31;3.28;;;2.47;;
18176;SDS011;9213;50.858;3.964;2023-07-20T14:54:01;5.50;;;2.92;;
18176;SDS011;9213;50.858;3.964;2023-07-20T14:56:28;6.85;;;3.10;;
18176;SDS011;9213;50.858;3.964;2023-07-20T14:58:54;3.75;;;3.45;;
18176;SDS011;9213;50.858;3.964;2023-07-20T15:01:23;4.20;;;3.42;;
18176;SDS011;9213;50.858;3.964;2023-07-20T15:03:49;6.75;;;4.00;;